sensor_id;sensor_type;location;lat;lon;timestamp;pressure;altitude;pressure_sealevel;temperature;humidity
45275;BME280;31019;43.780;25.948;2022-08-21T00:00:33;100393.22;;;24.17;100.00
45275;BME280;31019;43.780;25.948;2022-08-21T00:03:07;100395.00;;;23.99;100.00
45275;BME280;31019;43.780;25.948;2022-08-21T00:05:40;100409.25;;;23.77;100.00
45275;BME280;31019;43.780;25.948;2022-08-21T00:08:08;100405.06;;;24.72;100.00
45275;BME280;31019;43.780;25.948;2022-08-21T00:10:37;100410.34;;;24.04;100.00
45275;BME280;31019;43.780;25.948;2022-08-21T00:13:14;100408.69;;;24.31;100.00
45275;BME280;31019;43.780;25.948;2022-08-21T00:15:45;100402.03;;;24.00;100.00
45275;BME280;31019;43.780;25.948;2022-08-21T00:18:21;100404.81;;;23.95;100.00
45275;BME280;31019;43.780;25.948;2022-08-21T00:20:52;100399.53;;;23.76;100.00
45275;BME280;31019;43.780;25.948;2022-08-21T00:23:18;100398.38;;;24.05;100.00
45275;BME280;31019;43.780;25.948;2022-08-21T00:25:45;100380.41;;;23.68;100.00
45275;BME280;31019;43.780;25.948;2022-08-21T00:28:14;100378.13;;;24.03;100.00
45275;BME280;31019;43.780;25.948;2022-08-21T00:30:46;100377.72;;;23.95;100.00
45275;BME280;31019;43.780;25.948;2022-08-21T00:33:21;100372.38;;;23.90;100.00
45275;BME280;31019;43.780;25.948;2022-08-21T00:35:48;100375.59;;;23.65;100.00
45275;BME280;31019;43.780;25.948;2022-08-21T00:38:18;100358.28;;;24.16;100.00
45275;BME280;31019;43.780;25.948;2022-08-21T00:40:54;100358.28;;;24.16;100.00
45275;BME280;31019;43.780;25.948;2022-08-21T00:43:27;100361.47;;;23.82;100.00
45275;BME280;31019;43.780;25.948;2022-08-21T00:45:55;100361.38;;;24.23;100.00
45275;BME280;31019;43.780;25.948;2022-08-21T00:48:29;100367.50;;;24.42;100.00
45275;BME280;31019;43.780;25.948;2022-08-21T00:51:03;100361.44;;;23.95;100.00
45275;BME280;31019;43.780;25.948;2022-08-21T00:53:33;100357.44;;;24.29;100.00
45275;BME280;31019;43.780;25.948;2022-08-21T00:56:06;100351.78;;;23.48;100.00
45275;BME280;31019;43.780;25.948;2022-08-21T00:58:39;100355.13;;;23.59;100.00
45275;BME280;31019;43.780;25.948;2022-08-21T01:01:08;100346.28;;;23.81;100.00
45275;BME280;31019;43.780;25.948;2022-08-21T01:03:42;100350.78;;;23.99;100.00
45275;BME280;31019;43.780;25.948;2022-08-21T01:06:22;100348.88;;;23.44;100.00
45275;BME280;31019;43.780;25.948;2022-08-21T01:08:50;100345.72;;;23.70;100.00
45275;BME280;31019;43.780;25.948;2022-08-21T01:11:18;100343.09;;;23.79;100.00
45275;BME280;31019;43.780;25.948;2022-08-21T01:13:50;100337.16;;;23.49;100.00
45275;BME280;31019;43.780;25.948;2022-08-21T01:16:20;100337.22;;;23.16;100.00
45275;BME280;31019;43.780;25.948;2022-08-21T01:18:55;100331.41;;;23.50;100.00
45275;BME280;31019;43.780;25.948;2022-08-21T01:21:27;100318.75;;;23.60;100.00
45275;BME280;31019;43.780;25.948;2022-08-21T01:23:57;100308.22;;;23.44;100.00
45275;BME280;31019;43.780;25.948;2022-08-21T01:26:29;100311.75;;;23.45;100.00
45275;BME280;31019;43.780;25.948;2022-08-21T01:29:11;100305.22;;;23.32;100.00
45275;BME280;31019;43.780;25.948;2022-08-21T01:31:40;100290.88;;;23.31;100.00
45275;BME280;31019;43.780;25.948;2022-08-21T01:34:10;100304.84;;;22.92;100.00
45275;BME280;31019;43.780;25.948;2022-08-21T01:36:48;100292.91;;;23.12;100.00
45275;BME280;31019;43.780;25.948;2022-08-21T01:39:15;100288.09;;;22.90;100.00
45275;BME280;31019;43.780;25.948;2022-08-21T01:41:42;100282.53;;;23.14;100.00
45275;BME280;31019;43.780;25.948;2022-08-21T01:44:15;100283.06;;;23.16;100.00
45275;BME280;31019;43.780;25.948;2022-08-21T01:46:46;100297.69;;;23.01;100.00
45275;BME280;31019;43.780;25.948;2022-08-21T01:49:15;100300.19;;;22.98;100.00
45275;BME280;31019;43.780;25.948;2022-08-21T01:51:47;100292.72;;;22.76;100.00
45275;BME280;31019;43.780;25.948;2022-08-21T01:54:38;100279.94;;;22.95;100.00
45275;BME280;31019;43.780;25.948;2022-08-21T01:57:16;100287.81;;;22.92;100.00
45275;BME280;31019;43.780;25.948;2022-08-21T01:59:49;100284.16;;;23.01;100.00
45275;BME280;31019;43.780;25.948;2022-08-21T02:02:19;100279.44;;;23.07;100.00
45275;BME280;31019;43.780;25.948;2022-08-21T02:04:46;100282.41;;;22.92;100.00
45275;BME280;31019;43.780;25.948;2022-08-21T02:07:19;100279.19;;;22.57;100.00
45275;BME280;31019;43.780;25.948;2022-08-21T02:09:53;100281.56;;;22.45;100.00
45275;BME280;31019;43.780;25.948;2022-08-21T02:12:26;100276.41;;;22.62;100.00
45275;BME280;31019;43.780;25.948;2022-08-21T02:15:01;100264.00;;;22.61;100.00
45275;BME280;31019;43.780;25.948;2022-08-21T02:17:37;100266.16;;;22.45;100.00
45275;BME280;31019;43.780;25.948;2022-08-21T02:20:05;100265.81;;;22.14;100.00
45275;BME280;31019;43.780;25.948;2022-08-21T02:22:36;100271.09;;;22.24;100.00
45275;BME280;31019;43.780;25.948;2022-08-21T02:25:04;100257.91;;;21.99;100.00
45275;BME280;31019;43.780;25.948;2022-08-21T02:27:37;100267.69;;;21.57;100.00
45275;BME280;31019;43.780;25.948;2022-08-21T02:30:08;100261.66;;;21.41;100.00
45275;BME280;31019;43.780;25.948;2022-08-21T02:32:48;100263.38;;;21.56;100.00
45275;BME280;31019;43.780;25.948;2022-08-21T02:35:19;100265.88;;;21.71;100.00
45275;BME280;31019;43.780;25.948;2022-08-21T02:37:54;100255.84;;;21.53;100.00
45275;BME280;31019;43.780;25.948;2022-08-21T02:40:31;100259.13;;;21.49;100.00
45275;BME280;31019;43.780;25.948;2022-08-21T02:42:59;100259.50;;;21.43;100.00
45275;BME280;31019;43.780;25.948;2022-08-21T02:45:27;100254.59;;;21.45;100.00
45275;BME280;31019;43.780;25.948;2022-08-21T02:47:56;100261.47;;;21.56;100.00
45275;BME280;31019;43.780;25.948;2022-08-21T02:50:31;100268.56;;;21.52;100.00
45275;BME280;31019;43.780;25.948;2022-08-21T02:52:59;100266.34;;;21.54;100.00
45275;BME280;31019;43.780;25.948;2022-08-21T02:55:34;100271.38;;;21.42;100.00
45275;BME280;31019;43.780;25.948;2022-08-21T02:58:03;100271.91;;;20.91;100.00
45275;BME280;31019;43.780;25.948;2022-08-21T03:00:32;100263.69;;;21.06;100.00
45275;BME280;31019;43.780;25.948;2022-08-21T03:03:01;100262.19;;;21.43;100.00
45275;BME280;31019;43.780;25.948;2022-08-21T03:05:33;100260.91;;;21.35;100.00
45275;BME280;31019;43.780;25.948;2022-08-21T03:08:07;100262.41;;;21.22;100.00
45275;BME280;31019;43.780;25.948;2022-08-21T03:10:35;100259.28;;;21.34;100.00
45275;BME280;31019;43.780;25.948;2022-08-21T03:13:02;100263.34;;;21.37;100.00
45275;BME280;31019;43.780;25.948;2022-08-21T03:15:29;100256.28;;;21.12;100.00
45275;BME280;31019;43.780;25.948;2022-08-21T03:17:59;100265.22;;;21.12;100.00
45275;BME280;31019;43.780;25.948;2022-08-21T03:20:28;100261.44;;;21.37;100.00
45275;BME280;31019;43.780;25.948;2022-08-21T03:22:57;100260.50;;;21.47;100.00
45275;BME280;31019;43.780;25.948;2022-08-21T03:25:40;100252.41;;;21.47;100.00
45275;BME280;31019;43.780;25.948;2022-08-21T03:28:18;100263.00;;;21.43;100.00
45275;BME280;31019;43.780;25.948;2022-08-21T03:30:48;100260.00;;;21.45;100.00
45275;BME280;31019;43.780;25.948;2022-08-21T03:33:18;100257.59;;;21.43;100.00
45275;BME280;31019;43.780;25.948;2022-08-21T03:35:49;100257.00;;;21.46;100.00
45275;BME280;31019;43.780;25.948;2022-08-21T03:38:19;100259.38;;;21.72;100.00
45275;BME280;31019;43.780;25.948;2022-08-21T03:40:51;100248.56;;;21.72;100.00
45275;BME280;31019;43.780;25.948;2022-08-21T03:43:20;100254.06;;;21.67;100.00
45275;BME280;31019;43.780;25.948;2022-08-21T03:45:47;100252.44;;;21.66;100.00
45275;BME280;31019;43.780;25.948;2022-08-21T03:48:18;100244.09;;;21.62;100.00
45275;BME280;31019;43.780;25.948;2022-08-21T03:50:51;100249.22;;;21.64;100.00
45275;BME280;31019;43.780;25.948;2022-08-21T03:53:19;100251.91;;;20.97;100.00
45275;BME280;31019;43.780;25.948;2022-08-21T03:56:07;100257.41;;;21.11;100.00
45275;BME280;31019;43.780;25.948;2022-08-21T03:58:59;100255.16;;;21.18;100.00
45275;BME280;31019;43.780;25.948;2022-08-21T04:01:29;100259.34;;;21.53;100.00
45275;BME280;31019;43.780;25.948;2022-08-21T04:04:05;100269.00;;;21.35;100.00
45275;BME280;31019;43.780;25.948;2022-08-21T04:06:36;100291.25;;;20.74;100.00
45275;BME280;31019;43.780;25.948;2022-08-21T04:09:13;100315.38;;;20.89;100.00
45275;BME280;31019;43.780;25.948;2022-08-21T04:11:47;100320.69;;;21.53;100.00
45275;BME280;31019;43.780;25.948;2022-08-21T04:14:20;100302.06;;;21.94;100.00
45275;BME280;31019;43.780;25.948;2022-08-21T04:16:50;100310.56;;;22.25;100.00
45275;BME280;31019;43.780;25.948;2022-08-21T04:19:17;100324.28;;;22.10;100.00
45275;BME280;31019;43.780;25.948;2022-08-21T04:21:44;100341.53;;;22.33;100.00
45275;BME280;31019;43.780;25.948;2022-08-21T04:24:13;100332.19;;;22.44;100.00
45275;BME280;31019;43.780;25.948;2022-08-21T04:26:44;100328.84;;;22.66;100.00
45275;BME280;31019;43.780;25.948;2022-08-21T04:29:24;100340.25;;;22.63;100.00
45275;BME280;31019;43.780;25.948;2022-08-21T04:31:53;100339.84;;;22.89;100.00
45275;BME280;31019;43.780;25.948;2022-08-21T04:34:33;100319.19;;;22.93;100.00
45275;BME280;31019;43.780;25.948;2022-08-21T04:37:04;100315.19;;;22.90;100.00
45275;BME280;31019;43.780;25.948;2022-08-21T04:39:52;100338.47;;;23.24;100.00
45275;BME280;31019;43.780;25.948;2022-08-21T04:42:21;100330.81;;;23.26;100.00
45275;BME280;31019;43.780;25.948;2022-08-21T04:44:58;100322.78;;;23.35;100.00
45275;BME280;31019;43.780;25.948;2022-08-21T04:47:28;100309.06;;;23.31;100.00
45275;BME280;31019;43.780;25.948;2022-08-21T04:49:57;100319.75;;;23.08;100.00
45275;BME280;31019;43.780;25.948;2022-08-21T04:52:30;100322.78;;;23.35;100.00
45275;BME280;31019;43.780;25.948;2022-08-21T04:55:09;100322.41;;;23.55;100.00
45275;BME280;31019;43.780;25.948;2022-08-21T04:57:41;100321.47;;;23.60;100.00
45275;BME280;31019;43.780;25.948;2022-08-21T05:00:13;100315.28;;;23.73;100.00
45275;BME280;31019;43.780;25.948;2022-08-21T05:02:43;100318.75;;;23.60;100.00
45275;BME280;31019;43.780;25.948;2022-08-21T05:05:17;100327.41;;;23.89;100.00
45275;BME280;31019;43.780;25.948;2022-08-21T05:07:52;100340.56;;;23.82;100.00
45275;BME280;31019;43.780;25.948;2022-08-21T05:10:20;100344.63;;;24.07;100.00
45275;BME280;31019;43.780;25.948;2022-08-21T05:12:53;100337.63;;;24.29;100.00
45275;BME280;31019;43.780;25.948;2022-08-21T05:15:23;100338.06;;;24.22;100.00
45275;BME280;31019;43.780;25.948;2022-08-21T05:17:53;100342.50;;;24.18;100.00
45275;BME280;31019;43.780;25.948;2022-08-21T05:20:23;100344.16;;;25.49;100.00
45275;BME280;31019;43.780;25.948;2022-08-21T05:22:50;100342.31;;;25.04;100.00
45275;BME280;31019;43.780;25.948;2022-08-21T05:25:28;100339.13;;;25.02;100.00
45275;BME280;31019;43.780;25.948;2022-08-21T05:27:57;100353.25;;;25.44;100.00
45275;BME280;31019;43.780;25.948;2022-08-21T05:30:25;100336.97;;;25.53;100.00
45275;BME280;31019;43.780;25.948;2022-08-21T05:32:56;100342.50;;;25.30;100.00
45275;BME280;31019;43.780;25.948;2022-08-21T05:35:26;100337.28;;;26.17;100.00
45275;BME280;31019;43.780;25.948;2022-08-21T05:38:02;100340.91;;;25.38;100.00
45275;BME280;31019;43.780;25.948;2022-08-21T05:40:33;100339.81;;;25.39;100.00
45275;BME280;31019;43.780;25.948;2022-08-21T05:43:01;100340.47;;;26.11;100.00
45275;BME280;31019;43.780;25.948;2022-08-21T05:45:32;100330.44;;;25.71;100.00
45275;BME280;31019;43.780;25.948;2022-08-21T05:48:06;100319.56;;;25.71;100.00
45275;BME280;31019;43.780;25.948;2022-08-21T05:50:38;100327.16;;;25.83;100.00
45275;BME280;31019;43.780;25.948;2022-08-21T05:53:08;100331.19;;;26.20;100.00
45275;BME280;31019;43.780;25.948;2022-08-21T05:55:46;100341.09;;;26.25;100.00
45275;BME280;31019;43.780;25.948;2022-08-21T05:58:14;100330.09;;;25.55;100.00
45275;BME280;31019;43.780;25.948;2022-08-21T06:00:43;100323.53;;;25.56;100.00
45275;BME280;31019;43.780;25.948;2022-08-21T06:03:16;100330.06;;;26.21;100.00
45275;BME280;31019;43.780;25.948;2022-08-21T06:05:45;100336.31;;;26.48;100.00
45275;BME280;31019;43.780;25.948;2022-08-21T06:08:17;100332.78;;;26.21;100.00
45275;BME280;31019;43.780;25.948;2022-08-21T06:10:44;100331.03;;;26.34;100.00
45275;BME280;31019;43.780;25.948;2022-08-21T06:13:12;100332.59;;;26.44;100.00
45275;BME280;31019;43.780;25.948;2022-08-21T06:15:40;100327.44;;;26.86;100.00
45275;BME280;31019;43.780;25.948;2022-08-21T06:18:17;100336.31;;;26.13;100.00
45275;BME280;31019;43.780;25.948;2022-08-21T06:20:46;100332.63;;;26.53;100.00
45275;BME280;31019;43.780;25.948;2022-08-21T06:23:18;100334.72;;;26.56;100.00
45275;BME280;31019;43.780;25.948;2022-08-21T06:26:34;100333.91;;;26.72;100.00
45275;BME280;31019;43.780;25.948;2022-08-21T06:28:58;100329.09;;;26.35;100.00
45275;BME280;31019;43.780;25.948;2022-08-21T06:31:27;100333.28;;;26.15;100.00
45275;BME280;31019;43.780;25.948;2022-08-21T06:34:04;100336.78;;;26.50;100.00
45275;BME280;31019;43.780;25.948;2022-08-21T06:36:39;100330.19;;;26.77;100.00
45275;BME280;31019;43.780;25.948;2022-08-21T06:39:10;100346.09;;;26.66;100.00
45275;BME280;31019;43.780;25.948;2022-08-21T06:41:40;100341.22;;;26.81;100.00
45275;BME280;31019;43.780;25.948;2022-08-21T06:44:07;100341.13;;;26.51;100.00
45275;BME280;31019;43.780;25.948;2022-08-21T06:46:55;100341.50;;;27.05;100.00
45275;BME280;31019;43.780;25.948;2022-08-21T06:49:23;100333.63;;;27.21;100.00
45275;BME280;31019;43.780;25.948;2022-08-21T06:51:51;100347.41;;;27.54;100.00
45275;BME280;31019;43.780;25.948;2022-08-21T06:54:20;100347.13;;;27.77;100.00
45275;BME280;31019;43.780;25.948;2022-08-21T06:56:53;100356.59;;;26.94;100.00
45275;BME280;31019;43.780;25.948;2022-08-21T06:59:28;100351.94;;;27.80;100.00
45275;BME280;31019;43.780;25.948;2022-08-21T07:01:58;100343.03;;;27.62;100.00
45275;BME280;31019;43.780;25.948;2022-08-21T07:04:28;100344.25;;;27.82;100.00
45275;BME280;31019;43.780;25.948;2022-08-21T07:07:02;100349.56;;;27.40;100.00
45275;BME280;31019;43.780;25.948;2022-08-21T07:09:38;100336.97;;;27.86;100.00
45275;BME280;31019;43.780;25.948;2022-08-21T07:12:08;100344.25;;;27.73;100.00
45275;BME280;31019;43.780;25.948;2022-08-21T07:14:40;100340.69;;;27.05;100.00
45275;BME280;31019;43.780;25.948;2022-08-21T07:17:08;100344.22;;;27.52;100.00
45275;BME280;31019;43.780;25.948;2022-08-21T07:19:37;100337.47;;;27.88;100.00
45275;BME280;31019;43.780;25.948;2022-08-21T07:22:05;100324.88;;;27.36;100.00
45275;BME280;31019;43.780;25.948;2022-08-21T07:24:47;100329.81;;;28.02;100.00
45275;BME280;31019;43.780;25.948;2022-08-21T07:27:24;100328.66;;;28.24;100.00
45275;BME280;31019;43.780;25.948;2022-08-21T07:29:55;100333.47;;;28.27;100.00
45275;BME280;31019;43.780;25.948;2022-08-21T07:32:27;100320.44;;;28.12;100.00
45275;BME280;31019;43.780;25.948;2022-08-21T07:34:59;100322.56;;;28.94;100.00
45275;BME280;31019;43.780;25.948;2022-08-21T07:37:29;100317.81;;;29.15;100.00
45275;BME280;31019;43.780;25.948;2022-08-21T07:40:03;100317.59;;;29.20;100.00
45275;BME280;31019;43.780;25.948;2022-08-21T07:42:32;100313.94;;;29.78;100.00
45275;BME280;31019;43.780;25.948;2022-08-21T07:45:00;100311.88;;;29.87;100.00
45275;BME280;31019;43.780;25.948;2022-08-21T07:47:36;100312.13;;;29.57;100.00
45275;BME280;31019;43.780;25.948;2022-08-21T07:50:13;100308.44;;;29.90;100.00
45275;BME280;31019;43.780;25.948;2022-08-21T07:52:43;100309.66;;;30.05;100.00
45275;BME280;31019;43.780;25.948;2022-08-21T07:55:19;100305.34;;;30.20;100.00
45275;BME280;31019;43.780;25.948;2022-08-21T07:58:09;100303.13;;;30.09;100.00
45275;BME280;31019;43.780;25.948;2022-08-21T08:00:42;100302.63;;;29.92;100.00
45275;BME280;31019;43.780;25.948;2022-08-21T08:03:11;100294.19;;;30.25;100.00
45275;BME280;31019;43.780;25.948;2022-08-21T08:05:47;100288.97;;;30.48;100.00
45275;BME280;31019;43.780;25.948;2022-08-21T08:08:15;100305.06;;;30.21;100.00
45275;BME280;31019;43.780;25.948;2022-08-21T08:10:43;100290.88;;;30.19;100.00
45275;BME280;31019;43.780;25.948;2022-08-21T08:13:10;100297.88;;;30.04;100.00
45275;BME280;31019;43.780;25.948;2022-08-21T08:15:37;100290.16;;;29.41;100.00
45275;BME280;31019;43.780;25.948;2022-08-21T08:18:04;100282.13;;;28.87;100.00
45275;BME280;31019;43.780;25.948;2022-08-21T08:20:31;100286.56;;;29.53;100.00
45275;BME280;31019;43.780;25.948;2022-08-21T08:23:00;100276.34;;;29.62;100.00
45275;BME280;31019;43.780;25.948;2022-08-21T08:25:27;100272.50;;;29.92;100.00
45275;BME280;31019;43.780;25.948;2022-08-21T08:28:08;100270.19;;;29.65;100.00
45275;BME280;31019;43.780;25.948;2022-08-21T08:30:35;100276.66;;;28.99;100.00
45275;BME280;31019;43.780;25.948;2022-08-21T08:33:01;100276.47;;;28.59;100.00
45275;BME280;31019;43.780;25.948;2022-08-21T08:35:28;100265.72;;;28.75;100.00
45275;BME280;31019;43.780;25.948;2022-08-21T08:37:55;100265.44;;;30.19;100.00
45275;BME280;31019;43.780;25.948;2022-08-21T08:40:30;100267.28;;;29.74;100.00
45275;BME280;31019;43.780;25.948;2022-08-21T08:42:58;100265.47;;;29.78;100.00
45275;BME280;31019;43.780;25.948;2022-08-21T08:45:26;100266.34;;;29.30;100.00
45275;BME280;31019;43.780;25.948;2022-08-21T08:47:58;100267.91;;;30.08;100.00
45275;BME280;31019;43.780;25.948;2022-08-21T08:50:28;100253.03;;;30.97;100.00
45275;BME280;31019;43.780;25.948;2022-08-21T08:53:01;100254.47;;;29.26;100.00
45275;BME280;31019;43.780;25.948;2022-08-21T08:55:35;100255.22;;;30.60;100.00
45275;BME280;31019;43.780;25.948;2022-08-21T08:58:03;100244.63;;;31.76;98.72
45275;BME280;31019;43.780;25.948;2022-08-21T09:00:31;100237.44;;;32.07;94.30
45275;BME280;31019;43.780;25.948;2022-08-21T09:03:00;100239.91;;;32.54;97.53
45275;BME280;31019;43.780;25.948;2022-08-21T09:05:30;100239.09;;;32.11;83.74
45275;BME280;31019;43.780;25.948;2022-08-21T09:08:20;100239.41;;;31.52;92.41
45275;BME280;31019;43.780;25.948;2022-08-21T09:11:01;100234.56;;;32.42;86.72
45275;BME280;31019;43.780;25.948;2022-08-21T09:13:37;100225.16;;;32.43;75.82
45275;BME280;31019;43.780;25.948;2022-08-21T09:16:13;100224.88;;;32.06;79.31
45275;BME280;31019;43.780;25.948;2022-08-21T09:18:52;100228.41;;;32.49;73.34
45275;BME280;31019;43.780;25.948;2022-08-21T09:21:26;100225.09;;;32.39;73.28
45275;BME280;31019;43.780;25.948;2022-08-21T09:24:22;100217.69;;;32.44;71.97
45275;BME280;31019;43.780;25.948;2022-08-21T09:27:01;100217.03;;;31.14;82.94
45275;BME280;31019;43.780;25.948;2022-08-21T09:29:32;100210.09;;;31.56;82.99
45275;BME280;31019;43.780;25.948;2022-08-21T09:32:00;100207.88;;;32.00;81.46
45275;BME280;31019;43.780;25.948;2022-08-21T09:34:28;100202.97;;;31.00;81.72
45275;BME280;31019;43.780;25.948;2022-08-21T09:36:57;100209.06;;;30.62;96.69
45275;BME280;31019;43.780;25.948;2022-08-21T09:39:26;100208.56;;;30.72;96.43
45275;BME280;31019;43.780;25.948;2022-08-21T09:42:05;100196.97;;;30.94;95.73
45275;BME280;31019;43.780;25.948;2022-08-21T09:47:07;100199.91;;;31.37;91.64
45275;BME280;31019;43.780;25.948;2022-08-21T09:49:39;100208.09;;;30.38;100.00
45275;BME280;31019;43.780;25.948;2022-08-21T09:52:17;100199.44;;;30.52;100.00
45275;BME280;31019;43.780;25.948;2022-08-21T09:54:51;100191.47;;;30.31;100.00
45275;BME280;31019;43.780;25.948;2022-08-21T09:57:24;100185.56;;;30.92;96.54
45275;BME280;31019;43.780;25.948;2022-08-21T10:00:19;100191.25;;;30.84;94.87
45275;BME280;31019;43.780;25.948;2022-08-21T10:02:48;100181.06;;;31.35;91.10
45275;BME280;31019;43.780;25.948;2022-08-21T10:05:21;100176.97;;;30.94;93.46
45275;BME280;31019;43.780;25.948;2022-08-21T10:07:51;100180.16;;;30.80;99.42
45275;BME280;31019;43.780;25.948;2022-08-21T10:10:21;100177.16;;;30.85;99.31
45275;BME280;31019;43.780;25.948;2022-08-21T10:12:55;100171.31;;;30.71;98.34
45275;BME280;31019;43.780;25.948;2022-08-21T10:15:39;100165.63;;;31.46;87.65
45275;BME280;31019;43.780;25.948;2022-08-21T10:18:17;100163.81;;;31.54;94.49
45275;BME280;31019;43.780;25.948;2022-08-21T10:20:52;100159.78;;;31.48;91.21
45275;BME280;31019;43.780;25.948;2022-08-21T10:23:40;100157.69;;;31.80;86.25
45275;BME280;31019;43.780;25.948;2022-08-21T10:26:18;100162.38;;;32.22;82.47
45275;BME280;31019;43.780;25.948;2022-08-21T10:32:20;100147.38;;;32.89;69.29
45275;BME280;31019;43.780;25.948;2022-08-21T10:35:17;100146.50;;;33.08;73.30
45275;BME280;31019;43.780;25.948;2022-08-21T10:40:50;100147.13;;;33.91;68.49
45275;BME280;31019;43.780;25.948;2022-08-21T10:43:32;100142.44;;;34.33;67.16
45275;BME280;31019;43.780;25.948;2022-08-21T10:46:14;100132.91;;;34.75;59.64
45275;BME280;31019;43.780;25.948;2022-08-21T10:48:47;100128.19;;;34.72;57.23
45275;BME280;31019;43.780;25.948;2022-08-21T10:51:23;100126.63;;;33.89;64.48
45275;BME280;31019;43.780;25.948;2022-08-21T10:54:05;100128.78;;;33.35;68.64
45275;BME280;31019;43.780;25.948;2022-08-21T10:56:40;100123.69;;;32.80;61.71
45275;BME280;31019;43.780;25.948;2022-08-21T10:59:23;100116.69;;;33.77;61.33
45275;BME280;31019;43.780;25.948;2022-08-21T11:02:04;100114.19;;;34.47;55.95
45275;BME280;31019;43.780;25.948;2022-08-21T11:04:48;100098.66;;;35.70;50.73
45275;BME280;31019;43.780;25.948;2022-08-21T11:07:21;100105.84;;;34.95;54.11
45275;BME280;31019;43.780;25.948;2022-08-21T11:10:08;100102.13;;;34.65;58.15
45275;BME280;31019;43.780;25.948;2022-08-21T11:12:48;100095.84;;;34.69;52.08
45275;BME280;31019;43.780;25.948;2022-08-21T11:15:28;100091.22;;;34.87;51.43
45275;BME280;31019;43.780;25.948;2022-08-21T11:18:11;100081.59;;;35.40;49.09
45275;BME280;31019;43.780;25.948;2022-08-21T11:20:59;100075.78;;;35.55;50.49
45275;BME280;31019;43.780;25.948;2022-08-21T11:23:38;100074.09;;;35.37;48.14
45275;BME280;31019;43.780;25.948;2022-08-21T11:26:12;100069.47;;;35.59;46.66
45275;BME280;31019;43.780;25.948;2022-08-21T11:28:45;100062.81;;;35.92;48.50
45275;BME280;31019;43.780;25.948;2022-08-21T11:31:32;100063.56;;;32.79;47.99
45275;BME280;31019;43.780;25.948;2022-08-21T11:34:17;100055.56;;;33.61;51.90
45275;BME280;31019;43.780;25.948;2022-08-21T11:36:55;100044.09;;;35.24;47.27
45275;BME280;31019;43.780;25.948;2022-08-21T11:39:28;100044.22;;;35.57;43.64
45275;BME280;31019;43.780;25.948;2022-08-21T11:42:12;100039.44;;;35.46;43.60
45275;BME280;31019;43.780;25.948;2022-08-21T11:44:46;100031.97;;;35.50;43.17
45275;BME280;31019;43.780;25.948;2022-08-21T11:47:21;100038.38;;;34.78;44.51
45275;BME280;31019;43.780;25.948;2022-08-21T11:50:06;100028.28;;;35.07;45.32
45275;BME280;31019;43.780;25.948;2022-08-21T11:52:46;100028.84;;;35.63;44.53
45275;BME280;31019;43.780;25.948;2022-08-21T11:55:29;100024.91;;;35.64;43.01
45275;BME280;31019;43.780;25.948;2022-08-21T11:58:14;100016.88;;;35.08;49.11
45275;BME280;31019;43.780;25.948;2022-08-21T12:00:48;100028.66;;;33.84;52.87
45275;BME280;31019;43.780;25.948;2022-08-21T12:03:34;100031.00;;;34.30;51.67
45275;BME280;31019;43.780;25.948;2022-08-21T12:06:06;100029.38;;;32.50;62.44
45275;BME280;31019;43.780;25.948;2022-08-21T12:08:36;100022.50;;;32.36;69.08
45275;BME280;31019;43.780;25.948;2022-08-21T12:11:22;100027.44;;;31.78;72.49
45275;BME280;31019;43.780;25.948;2022-08-21T12:13:55;100034.44;;;31.33;75.57
45275;BME280;31019;43.780;25.948;2022-08-21T12:16:33;100024.22;;;30.40;81.49
45275;BME280;31019;43.780;25.948;2022-08-21T12:19:07;100024.72;;;30.45;91.46
45275;BME280;31019;43.780;25.948;2022-08-21T12:21:48;100017.84;;;30.04;85.03
45275;BME280;31019;43.780;25.948;2022-08-21T12:24:17;100017.59;;;29.93;95.38
45275;BME280;31019;43.780;25.948;2022-08-21T12:26:51;100035.47;;;29.03;100.00
45275;BME280;31019;43.780;25.948;2022-08-21T12:29:25;100047.69;;;28.07;100.00
45275;BME280;31019;43.780;25.948;2022-08-21T12:31:57;100048.31;;;26.83;100.00
45275;BME280;31019;43.780;25.948;2022-08-21T12:34:32;100049.72;;;26.30;100.00
45275;BME280;31019;43.780;25.948;2022-08-21T12:37:22;100051.75;;;26.71;100.00
45275;BME280;31019;43.780;25.948;2022-08-21T12:39:54;100054.22;;;25.35;100.00
45275;BME280;31019;43.780;25.948;2022-08-21T12:42:24;100060.25;;;26.32;100.00
45275;BME280;31019;43.780;25.948;2022-08-21T12:44:59;100040.19;;;26.75;100.00
45275;BME280;31019;43.780;25.948;2022-08-21T12:47:47;100054.13;;;26.43;100.00
45275;BME280;31019;43.780;25.948;2022-08-21T12:50:19;100044.19;;;26.09;100.00
45275;BME280;31019;43.780;25.948;2022-08-21T12:52:55;100063.44;;;26.42;100.00
45275;BME280;31019;43.780;25.948;2022-08-21T12:55:42;100069.88;;;26.29;100.00
45275;BME280;31019;43.780;25.948;2022-08-21T12:58:21;100069.13;;;26.11;100.00
45275;BME280;31019;43.780;25.948;2022-08-21T13:00:52;100074.22;;;25.57;100.00
45275;BME280;31019;43.780;25.948;2022-08-21T13:03:23;100079.97;;;25.38;100.00
45275;BME280;31019;43.780;25.948;2022-08-21T13:05:54;100080.63;;;25.26;100.00
45275;BME280;31019;43.780;25.948;2022-08-21T13:08:27;100088.38;;;24.84;100.00
45275;BME280;31019;43.780;25.948;2022-08-21T13:11:05;100073.44;;;24.56;100.00
45275;BME280;31019;43.780;25.948;2022-08-21T13:13:35;100069.00;;;24.68;100.00